createdAt,value
2022-08-28T00:00:59.753Z,147426.97
2022-08-28T00:03:26.836Z,147505.19
2022-08-28T00:05:53.974Z,147469.69
2022-08-28T00:08:21.150Z,147513.75
2022-08-28T00:10:48.364Z,147488.03
2022-08-28T00:13:18.989Z,147523.50
2022-08-28T00:15:50.484Z,147500.28
2022-08-28T00:18:18.268Z,147478.25
2022-08-28T00:20:46.379Z,147396.44
2022-08-28T00:23:14.709Z,147419.63
2022-08-28T00:25:41.939Z,147373.25
2022-08-28T00:28:11.054Z,147425.78
2022-08-28T00:30:53.683Z,147453.84
2022-08-28T00:33:27.705Z,147439.22
2022-08-28T00:35:55.623Z,147456.28
2022-08-28T00:38:25.683Z,147453.84
2022-08-28T00:40:55.579Z,147458.72
2022-08-28T00:43:44.491Z,147445.28
2022-08-28T00:47:06.102Z,147470.91
2022-08-28T00:49:47.917Z,147402.56
2022-08-28T00:52:16.052Z,147462.41
2022-08-28T00:54:50.506Z,147462.41
2022-08-28T00:57:34.051Z,147462.41
2022-08-28T01:00:01.646Z,147411.06
2022-08-28T01:02:28.995Z,147470.91
2022-08-28T01:04:56.242Z,147479.47
2022-08-28T01:07:23.772Z,147456.28
2022-08-28T01:09:54.685Z,147466.03
2022-08-28T01:12:26.089Z,147456.28
2022-08-28T01:14:59.782Z,147473.38
2022-08-28T01:17:31.171Z,147470.91
2022-08-28T01:20:05.366Z,147473.38
2022-08-28T01:22:38.296Z,147483.13
2022-08-28T01:25:13.269Z,147478.25
2022-08-28T01:27:46.791Z,147441.63
2022-08-28T01:30:17.876Z,147492.94
2022-08-28T01:32:49.368Z,147479.47
2022-08-28T01:35:21.641Z,147483.13
2022-08-28T01:37:48.845Z,147431.88
2022-08-28T01:40:22.958Z,147491.75
2022-08-28T01:42:50.279Z,147461.16
2022-08-28T01:45:20.519Z,147475.84
2022-08-28T01:47:48.345Z,147478.25
2022-08-28T01:50:20.756Z,147480.72
2022-08-28T01:52:47.849Z,147447.72
2022-08-28T01:55:15.129Z,147491.75
2022-08-28T01:57:49.595Z,147483.13
2022-08-28T02:00:17.908Z,147480.72
2022-08-28T02:02:44.949Z,147478.25
2022-08-28T02:05:12.208Z,147370.81
2022-08-28T02:07:39.521Z,147436.75
2022-08-28T02:10:08.060Z,147437.94
2022-08-28T02:12:35.870Z,147422.09
2022-08-28T02:18:53.133Z,147452.59
2022-08-28T02:21:20.362Z,147450.19
2022-08-28T02:23:47.539Z,147439.22
2022-08-28T02:26:14.952Z,147484.34
2022-08-28T02:28:42.656Z,147500.28
2022-08-28T02:31:11.008Z,147466.03
2022-08-28T02:33:40.859Z,147470.91
2022-08-28T02:36:10.219Z,147456.28
2022-08-28T02:38:38.442Z,147455.06
2022-08-28T02:41:07.011Z,147475.84
2022-08-28T02:43:34.756Z,147463.63
2022-08-28T02:46:02.883Z,147461.16
2022-08-28T02:48:31.651Z,147415.97
2022-08-28T02:51:04.425Z,147383.00
2022-08-28T02:53:32.269Z,147370.81
2022-08-28T02:56:00.782Z,147423.31
2022-08-28T02:58:27.878Z,147441.63
2022-08-28T03:00:58.347Z,147459.94
2022-08-28T03:03:27.562Z,147490.53
2022-08-28T03:05:55.603Z,147466.03
2022-08-28T03:08:27.336Z,147466.03
2022-08-28T03:10:55.386Z,147431.88
2022-08-28T03:13:27.155Z,147387.88
2022-08-28T03:15:55.899Z,147441.63
2022-08-28T03:18:25.581Z,147461.16
2022-08-28T03:20:55.444Z,147435.53
2022-08-28T03:23:28.732Z,147422.09
2022-08-28T03:26:00.409Z,147390.34
2022-08-28T03:28:31.600Z,147402.56
2022-08-28T03:30:58.857Z,147385.47
2022-08-28T03:33:27.261Z,147373.25
2022-08-28T03:35:55.482Z,147429.41
2022-08-28T03:38:22.963Z,147341.50
2022-08-28T03:40:52.503Z,147391.56
2022-08-28T03:43:22.353Z,147326.84
2022-08-28T03:45:58.763Z,147353.72
2022-08-28T03:48:28.469Z,147373.25
2022-08-28T03:50:55.663Z,147339.06
2022-08-28T03:53:24.736Z,147341.50
2022-08-28T03:55:53.126Z,147340.28
2022-08-28T03:58:20.422Z,147307.34
2022-08-28T04:00:47.923Z,147260.97
2022-08-28T04:03:15.246Z,147300.00
2022-08-28T04:05:44.382Z,147278.00
2022-08-28T04:08:16.151Z,147248.75
2022-08-28T04:10:44.585Z,147348.84
2022-08-28T04:13:13.185Z,147317.09
2022-08-28T04:15:41.305Z,147302.47
2022-08-28T04:18:09.709Z,147192.56
2022-08-28T04:20:37.389Z,147170.59
2022-08-28T04:23:09.298Z,147230.38
2022-08-28T04:25:40.010Z,147265.84
2022-08-28T04:28:07.036Z,147213.28
2022-08-28T04:30:34.077Z,147229.19
2022-08-28T04:33:01.129Z,147204.72
2022-08-28T04:35:28.974Z,147216.97
2022-08-28T04:37:58.865Z,147216.97
2022-08-28T04:40:26.291Z,147173.00
2022-08-28T04:42:53.363Z,147241.34
2022-08-28T04:45:20.412Z,147225.50
2022-08-28T04:47:47.463Z,147225.50
2022-08-28T04:50:14.497Z,147184.00
2022-08-28T04:52:43.167Z,147210.88
2022-08-28T04:55:10.435Z,147198.66
2022-08-28T04:57:37.442Z,147140.06
2022-08-28T05:00:06.874Z,147102.25
2022-08-28T05:02:34.002Z,147162.03
2022-08-28T05:05:01.089Z,147159.56
2022-08-28T05:07:28.406Z,147202.31
2022-08-28T05:09:55.516Z,147171.78
2022-08-28T05:12:22.606Z,147164.50
2022-08-28T05:14:50.059Z,147138.84
2022-08-28T05:17:17.178Z,147210.88
2022-08-28T05:19:44.268Z,147143.75
2022-08-28T05:22:11.362Z,147170.59
2022-08-28T05:24:40.137Z,147175.47
2022-08-28T05:27:08.601Z,147202.31
2022-08-28T05:29:35.901Z,147170.59
2022-08-28T05:32:03.543Z,147173.00
2022-08-28T05:34:31.262Z,147180.34
2022-08-28T05:36:58.597Z,147126.66
2022-08-28T05:39:25.791Z,147229.19
2022-08-28T05:41:52.962Z,147229.19
2022-08-28T05:44:20.895Z,147204.72
2022-08-28T05:46:48.200Z,147247.53
2022-08-28T05:49:18.270Z,147245.03
2022-08-28T05:51:46.398Z,147274.38
2022-08-28T05:54:14.889Z,147199.84
2022-08-28T05:56:43.883Z,147248.75
2022-08-28T05:59:12.244Z,147229.19
2022-08-28T06:01:42.567Z,147263.38
2022-08-28T06:04:17.583Z,147263.38
2022-08-28T06:06:45.639Z,147279.28
2022-08-28T06:09:17.362Z,147254.81
2022-08-28T06:11:46.145Z,147218.16
2022-08-28T06:14:19.554Z,147285.34
2022-08-28T06:16:53.797Z,147287.78
2022-08-28T06:19:23.013Z,147285.34
2022-08-28T06:21:53.934Z,147300.00
2022-08-28T06:24:20.982Z,147334.19
2022-08-28T06:26:48.027Z,147270.72
2022-08-28T06:29:18.356Z,147270.72
2022-08-28T06:31:52.826Z,147296.31
2022-08-28T06:34:20.498Z,147337.81
2022-08-28T06:36:53.159Z,147287.78
2022-08-28T06:39:21.984Z,147385.47
2022-08-28T06:41:49.274Z,147347.63
2022-08-28T06:44:19.879Z,147343.97
2022-08-28T06:46:52.437Z,147331.72
2022-08-28T06:49:20.411Z,147363.47
2022-08-28T06:51:47.696Z,147307.34
2022-08-28T06:54:21.760Z,147229.19
2022-08-28T06:56:52.321Z,147343.97
2022-08-28T06:59:19.617Z,147376.91
2022-08-28T07:01:46.706Z,147420.88
2022-08-28T07:04:14.631Z,147408.66
2022-08-28T07:06:46.734Z,147478.25
2022-08-28T07:09:14.580Z,147456.28
2022-08-28T07:11:46.588Z,147472.16
2022-08-28T07:14:13.693Z,147463.63
2022-08-28T07:16:41.815Z,147483.13
2022-08-28T07:19:11.202Z,147439.22
2022-08-28T07:21:41.588Z,147469.69
2022-08-28T07:24:11.051Z,147562.56
2022-08-28T07:26:41.113Z,147523.50
2022-08-28T07:29:09.875Z,147492.94
2022-08-28T07:31:43.909Z,147492.94
2022-08-28T07:34:13.514Z,147447.72
2022-08-28T07:36:41.507Z,147378.13
2022-08-28T07:39:09.929Z,147409.88
2022-08-28T07:41:40.090Z,147510.06
2022-08-28T07:44:31.029Z,147527.16
2022-08-28T07:47:01.117Z,147561.34
2022-08-28T07:49:28.218Z,147563.81
2022-08-28T07:51:55.374Z,147607.75
2022-08-28T07:54:23.946Z,147578.47
2022-08-28T07:56:52.578Z,147620.00
2022-08-28T07:59:20.224Z,147593.13
2022-08-28T08:01:51.435Z,147583.34
2022-08-28T08:04:20.355Z,147648.09
2022-08-28T08:06:48.474Z,147667.63
2022-08-28T08:09:18.285Z,147635.84
2022-08-28T08:11:46.669Z,147657.88
2022-08-28T08:14:15.331Z,147700.66
2022-08-28T08:16:44.974Z,147726.34
2022-08-28T08:19:22.491Z,147756.91
2022-08-28T08:21:53.117Z,147741.00
2022-08-28T08:24:26.681Z,147776.44
2022-08-28T08:27:00.094Z,147741.00
2022-08-28T08:29:35.463Z,147841.22
2022-08-28T08:32:06.418Z,147813.13
2022-08-28T08:34:36.422Z,147836.34
2022-08-28T08:37:05.430Z,147870.59
2022-08-28T08:39:34.126Z,147822.88
2022-08-28T08:42:03.897Z,147913.38
2022-08-28T08:44:40.731Z,147901.13
2022-08-28T08:47:38.429Z,147986.78
2022-08-28T08:50:10.758Z,147910.91
2022-08-28T08:52:50.362Z,147957.44
2022-08-28T08:55:52.466Z,148008.78
2022-08-28T08:58:31.793Z,147986.78
2022-08-28T09:01:17.384Z,148016.09
2022-08-28T09:03:55.322Z,147961.09
2022-08-28T09:06:44.512Z,147994.13
2022-08-28T09:09:18.535Z,148013.69
2022-08-28T09:11:57.416Z,148021.00
2022-08-28T09:14:44.596Z,148067.50
2022-08-28T09:17:16.400Z,148084.59
2022-08-28T09:19:43.454Z,148036.91
2022-08-28T09:22:10.654Z,148005.13
2022-08-28T09:24:40.211Z,147961.09
2022-08-28T09:27:23.023Z,147958.66
2022-08-28T09:29:59.538Z,148019.78
2022-08-28T09:32:41.621Z,148045.50
2022-08-28T09:35:16.316Z,148046.69
2022-08-28T09:37:44.137Z,147915.84
2022-08-28T09:40:20.394Z,148040.59
2022-08-28T09:43:28.877Z,148027.13
2022-08-28T09:46:09.741Z,148065.03
2022-08-28T09:48:38.096Z,148084.59
2022-08-28T09:51:10.640Z,148104.19
2022-08-28T09:53:54.863Z,148080.97
2022-08-28T09:56:29.738Z,148028.34
2022-08-28T09:59:01.336Z,148085.84
2022-08-28T10:01:46.678Z,148076.03
2022-08-28T10:04:53.950Z,148082.19
2022-08-28T10:07:48.640Z,148150.72
2022-08-28T10:10:34.673Z,148165.41
2022-08-28T10:13:20.112Z,148142.13
2022-08-28T10:16:20.181Z,148107.84
2022-08-28T10:19:04.216Z,148202.09
2022-08-28T10:21:34.171Z,148180.06
2022-08-28T10:24:26.843Z,148133.53
2022-08-28T10:27:19.375Z,148180.06
2022-08-28T10:30:11.281Z,148266.94
2022-08-28T10:32:43.249Z,148182.53
2022-08-28T10:35:17.160Z,148177.66
2022-08-28T10:38:08.916Z,148197.22
2022-08-28T10:40:46.702Z,148182.53
2022-08-28T10:43:19.143Z,148192.31
2022-08-28T10:45:49.318Z,148165.41
2022-08-28T10:48:25.051Z,148255.97
2022-08-28T10:51:00.691Z,148258.38
2022-08-28T10:53:54.265Z,148210.69
2022-08-28T10:56:25.915Z,148175.19
2022-08-28T10:58:58.881Z,148203.31
2022-08-28T11:01:30.332Z,148255.97
2022-08-28T11:04:00.860Z,148255.97
2022-08-28T11:06:42.291Z,148311.03
2022-08-28T11:09:27.449Z,148367.38
2022-08-28T11:12:01.818Z,148368.56
2022-08-28T11:14:39.375Z,148382.03
2022-08-28T11:17:33.302Z,148465.28
2022-08-28T11:20:24.981Z,148374.69
2022-08-28T11:23:12.467Z,148410.19
2022-08-28T11:25:49.595Z,148363.69
2022-08-28T11:28:39.464Z,148478.75
2022-08-28T11:31:06.598Z,148481.22
2022-08-28T11:33:52.806Z,148417.53
2022-08-28T11:36:19.803Z,148608.59
2022-08-28T11:38:56.025Z,148696.81
2022-08-28T11:41:36.444Z,148753.19
2022-08-28T11:44:09.459Z,148786.25
2022-08-28T11:46:48.644Z,148870.78
2022-08-28T11:49:27.630Z,148780.16
2022-08-28T11:52:23.710Z,148785.06
2022-08-28T11:55:03.688Z,148745.81
2022-08-28T12:00:46.277Z,148861.00
2022-08-28T12:03:34.774Z,148836.50
2022-08-28T12:06:03.396Z,148814.44
2022-08-28T12:08:46.776Z,148753.19
2022-08-28T12:11:41.910Z,148760.50
2022-08-28T12:14:27.798Z,148718.81
2022-08-28T12:17:00.907Z,148691.91
2022-08-28T12:19:35.494Z,148614.75
2022-08-28T12:22:15.197Z,148661.28
2022-08-28T12:25:06.203Z,148630.63
2022-08-28T12:27:38.271Z,148690.66
2022-08-28T12:30:05.929Z,148701.72
2022-08-28T12:32:46.406Z,148810.75
2022-08-28T12:35:18.314Z,148810.75
2022-08-28T12:38:09.292Z,148731.13
2022-08-28T12:40:53.325Z,148821.81
2022-08-28T12:43:29.622Z,148892.88
2022-08-28T12:46:04.212Z,148876.97
2022-08-28T12:48:46.934Z,148944.38
2022-08-28T12:51:20.863Z,148986.09
2022-08-28T12:53:57.510Z,148894.13
2022-08-28T12:56:26.379Z,148820.59
2022-08-28T12:58:53.449Z,148912.56
2022-08-28T13:01:20.516Z,148989.72
2022-08-28T13:03:52.057Z,148951.75
2022-08-28T13:06:26.960Z,148929.69
2022-08-28T13:09:03.107Z,148946.84
2022-08-28T13:11:37.748Z,148853.69
2022-08-28T13:14:08.392Z,148754.41
2022-08-28T13:16:44.599Z,148794.84
2022-08-28T13:19:27.000Z,148862.25
2022-08-28T13:22:00.438Z,148880.66
2022-08-28T13:24:43.610Z,148895.34
2022-08-28T13:27:17.009Z,148873.28
2022-08-28T13:30:19.852Z,148852.41
2022-08-28T13:33:04.456Z,148949.31
2022-08-28T13:35:33.119Z,148965.25
2022-08-28T13:38:04.270Z,148896.56
2022-08-28T13:40:56.773Z,148873.28
2022-08-28T13:43:27.493Z,148928.47
2022-08-28T13:45:54.714Z,148981.16
2022-08-28T13:48:25.114Z,148956.66
2022-08-28T13:51:01.482Z,148973.81
2022-08-28T13:53:31.830Z,148999.53
2022-08-28T13:56:00.321Z,148885.53
2022-08-28T13:58:28.152Z,148972.63
2022-08-28T14:00:55.521Z,148959.13
2022-08-28T14:03:41.284Z,148948.06
2022-08-28T14:06:17.274Z,149026.50
2022-08-28T14:08:46.224Z,148973.81
2022-08-28T14:11:15.609Z,148879.38
2022-08-28T14:13:47.238Z,148968.94
2022-08-28T14:16:24.978Z,148885.53
2022-08-28T14:18:52.800Z,148875.75
2022-08-28T14:21:20.950Z,148878.16
2022-08-28T14:23:47.990Z,148886.75
2022-08-28T14:26:15.131Z,148859.78
2022-08-28T14:28:42.655Z,148859.78
2022-08-28T14:31:14.290Z,148846.31
2022-08-28T14:33:45.377Z,148841.41
2022-08-28T14:36:21.071Z,148846.31
2022-08-28T14:38:50.939Z,148812.00
2022-08-28T14:41:22.135Z,148786.25
2022-08-28T14:43:49.606Z,148750.72
2022-08-28T14:46:23.070Z,148796.06
2022-08-28T14:48:50.912Z,148772.78
2022-08-28T14:51:18.488Z,148809.53
2022-08-28T14:53:45.579Z,148892.88
2022-08-28T14:56:12.890Z,148851.19
2022-08-28T14:58:40.411Z,148875.75
2022-08-28T15:01:07.579Z,148887.97
2022-08-28T15:03:35.115Z,148812.00
2022-08-28T15:06:04.804Z,148853.69
2022-08-28T15:08:32.166Z,148842.63
2022-08-28T15:10:59.295Z,148841.41
2022-08-28T15:13:26.353Z,148899.03
2022-08-28T15:16:05.485Z,148910.09
2022-08-28T15:18:43.917Z,148950.53
2022-08-28T15:21:22.025Z,148979.94
2022-08-28T15:23:51.127Z,148897.75
2022-08-28T15:26:20.006Z,148924.78
2022-08-28T15:28:47.108Z,149071.88
2022-08-28T15:31:15.292Z,149140.59
2022-08-28T15:33:45.367Z,149260.81
2022-08-28T15:36:13.204Z,149197.00
2022-08-28T15:38:59.133Z,149222.75
2022-08-28T15:41:26.258Z,149344.22
2022-08-28T15:44:02.149Z,149327.09
2022-08-28T15:46:33.614Z,149467.00
2022-08-28T15:49:07.782Z,149660.97
2022-08-28T15:51:36.424Z,149705.19
2022-08-28T15:54:04.886Z,149766.59
2022-08-28T15:56:31.918Z,149787.50
2022-08-28T15:58:58.959Z,149738.38
2022-08-28T16:01:26.057Z,149543.09
2022-08-28T16:03:53.330Z,149570.06
2022-08-28T16:06:21.834Z,149619.22
2022-08-28T16:08:49.929Z,149599.59
2022-08-28T16:11:19.903Z,149641.34
2022-08-28T16:13:47.074Z,149651.16
2022-08-28T16:16:14.362Z,149898.09
2022-08-28T16:18:42.535Z,149891.91
2022-08-28T16:21:10.191Z,150082.41
2022-08-28T16:23:37.857Z,150186.88
2022-08-28T16:26:06.605Z,150322.13
2022-08-28T16:28:34.878Z,150332.00
2022-08-28T16:31:07.577Z,150093.47
2022-08-28T16:33:46.539Z,149877.13
2022-08-28T16:36:16.256Z,150184.44
2022-08-28T16:38:46.038Z,150036.91
2022-08-28T16:41:21.702Z,149990.22
2022-08-28T16:43:50.024Z,150263.13
2022-08-28T16:46:23.697Z,150435.28
2022-08-28T16:48:52.174Z,150167.19
2022-08-28T16:51:20.007Z,150240.97
2022-08-28T16:53:47.431Z,150300.00
2022-08-28T16:56:17.109Z,150105.75
2022-08-28T16:58:44.862Z,150263.13
2022-08-28T17:01:13.567Z,150140.16
2022-08-28T17:03:41.739Z,150290.16
2022-08-28T17:06:13.873Z,150038.16
2022-08-28T17:08:41.610Z,149980.34
2022-08-28T17:11:08.845Z,150027.06
2022-08-28T17:13:36.655Z,150089.75
2022-08-28T17:16:04.303Z,150212.72
2022-08-28T17:18:31.997Z,150142.63
2022-08-28T17:21:17.797Z,149618.00
2022-08-28T17:23:46.458Z,149167.59
2022-08-28T17:26:15.245Z,148971.34
2022-08-28T17:28:43.242Z,148814.44
2022-08-28T17:31:11.445Z,148758.09
2022-08-28T17:33:40.901Z,148649.00
2022-08-28T17:36:12.324Z,148649.00
2022-08-28T17:38:48.793Z,148554.72
2022-08-28T17:41:15.847Z,148562.06
2022-08-28T17:43:42.948Z,148513.06
2022-08-28T17:46:10.148Z,148486.13
2022-08-28T17:48:38.588Z,148487.31
2022-08-28T17:51:06.222Z,148468.97
2022-08-28T17:53:33.529Z,148380.81
2022-08-28T17:56:04.036Z,148429.75
2022-08-28T17:58:35.650Z,148412.66
2022-08-28T18:01:06.275Z,148282.84
2022-08-28T18:03:33.643Z,148388.16
2022-08-28T18:06:10.990Z,148366.16
2022-08-28T18:08:39.318Z,148323.22
2022-08-28T18:11:07.009Z,148287.78
2022-08-28T18:13:34.035Z,148271.84
2022-08-28T18:16:01.134Z,148192.31
2022-08-28T18:18:36.182Z,148221.66
2022-08-28T18:21:04.109Z,148226.56
2022-08-28T18:23:31.197Z,148175.19
2022-08-28T18:25:58.431Z,148199.63
2022-08-28T18:28:26.582Z,148197.22
2022-08-28T18:30:54.402Z,148159.31
2022-08-28T18:33:23.631Z,148136.00
2022-08-28T18:35:52.184Z,148094.38
2022-08-28T18:38:21.767Z,148021.00
2022-08-28T18:40:49.336Z,148079.72
2022-08-28T18:43:20.081Z,147999.03
2022-08-28T18:45:47.705Z,148058.94
2022-08-28T18:48:15.205Z,148084.59
2022-08-28T18:50:46.322Z,148067.50
2022-08-28T18:53:18.197Z,148018.56
2022-08-28T18:55:45.789Z,148011.22
2022-08-28T18:58:15.369Z,148033.25
2022-08-28T19:00:43.724Z,147957.44
2022-08-28T19:03:11.107Z,147921.94
2022-08-28T19:05:38.984Z,148001.44
2022-08-28T19:08:06.444Z,147952.56
2022-08-28T19:10:35.275Z,147893.81
2022-08-28T19:13:03.898Z,147959.88
2022-08-28T19:15:31.847Z,147920.72
2022-08-28T19:18:02.773Z,147908.47
2022-08-28T19:20:30.469Z,147759.31
2022-08-28T19:22:58.508Z,147835.13
2022-08-28T19:25:29.070Z,147810.69
2022-08-28T19:27:59.079Z,147797.25
2022-08-28T19:30:28.982Z,147781.34
2022-08-28T19:32:56.141Z,147743.47
2022-08-28T19:35:24.499Z,147753.22
2022-08-28T19:37:55.142Z,147759.31
2022-08-28T19:40:22.662Z,147765.47
2022-08-28T19:42:50.315Z,147766.69
2022-08-28T19:45:17.809Z,147728.81
2022-08-28T19:47:46.809Z,147701.88
2022-08-28T19:50:15.045Z,147676.19
2022-08-28T19:52:43.231Z,147646.88
2022-08-28T19:55:18.456Z,147585.81
2022-08-28T19:57:46.835Z,147538.16
2022-08-28T20:00:18.986Z,147563.81
2022-08-28T20:02:48.007Z,147478.25
2022-08-28T20:05:15.261Z,147448.97
2022-08-28T20:07:43.630Z,147490.53
2022-08-28T20:10:12.541Z,147512.53
2022-08-28T20:12:40.152Z,147386.69
2022-08-28T20:15:16.792Z,147444.09
2022-08-28T20:17:49.546Z,147440.41
2022-08-28T20:20:19.108Z,147417.22
2022-08-28T20:22:46.306Z,147409.88
2022-08-28T20:25:13.479Z,147397.66
2022-08-28T20:27:41.879Z,147406.19
2022-08-28T20:30:10.451Z,147363.47
2022-08-28T20:32:40.133Z,147372.03
2022-08-28T20:35:10.275Z,147351.25
2022-08-28T20:37:44.653Z,147324.41
2022-08-28T20:40:19.256Z,147308.53
2022-08-28T20:42:46.638Z,147293.91
2022-08-28T20:45:15.914Z,147293.91
2022-08-28T20:47:43.670Z,147180.34
2022-08-28T20:50:12.220Z,147221.84
2022-08-28T20:52:39.567Z,147232.81
2022-08-28T20:55:08.701Z,147204.72
2022-08-28T20:57:36.649Z,147188.91
2022-08-28T21:00:08.107Z,147199.84
2022-08-28T21:02:35.560Z,147081.50
2022-08-28T21:05:02.735Z,147147.41
2022-08-28T21:07:30.140Z,147140.06
2022-08-28T21:10:06.814Z,147130.31
2022-08-28T21:12:38.670Z,147144.94
2022-08-28T21:15:08.349Z,147097.38
2022-08-28T21:17:35.584Z,147060.78
2022-08-28T21:20:08.315Z,147018.09
2022-08-28T21:22:36.143Z,147075.41
2022-08-28T21:25:05.226Z,147036.41
2022-08-28T21:27:32.660Z,147026.59
2022-08-28T21:30:00.382Z,146998.56
2022-08-28T21:32:29.217Z,146931.47
2022-08-28T21:34:56.834Z,146986.34
2022-08-28T21:37:24.292Z,146974.13
2022-08-28T21:39:52.054Z,146932.66
2022-08-28T21:42:21.113Z,146855.84
2022-08-28T21:44:51.585Z,146926.59
2022-08-28T21:47:23.214Z,146882.66
2022-08-28T21:49:53.301Z,146899.75
2022-08-28T21:52:22.098Z,146814.41
2022-08-28T21:54:49.195Z,146841.22
2022-08-28T21:57:17.583Z,146860.72
2022-08-28T21:59:44.711Z,146785.16
2022-08-28T22:02:11.783Z,146831.47
2022-08-28T22:04:38.931Z,146848.56
2022-08-28T22:07:06.502Z,146800.97
2022-08-28T22:09:33.533Z,146807.06
2022-08-28T22:12:01.289Z,146782.69
2022-08-28T22:14:28.480Z,146782.69
2022-08-28T22:16:56.595Z,146768.06
2022-08-28T22:19:23.793Z,146648.59
2022-08-28T22:22:09.594Z,146757.13
2022-08-28T22:24:37.491Z,146746.13
2022-08-28T22:27:05.754Z,146729.06
2022-08-28T22:29:36.418Z,146692.44
2022-08-28T22:32:07.857Z,146712.03
2022-08-28T22:34:40.603Z,146697.31
2022-08-28T22:37:08.085Z,146692.44
2022-08-28T22:39:35.112Z,146638.84
2022-08-28T22:42:02.350Z,146627.88
2022-08-28T22:44:29.509Z,146629.13
2022-08-28T22:46:56.526Z,146665.66
2022-08-28T22:49:23.661Z,146653.47
2022-08-28T22:51:50.665Z,146604.72
2022-08-28T22:54:17.859Z,146638.84
2022-08-28T22:56:44.958Z,146594.97
2022-08-28T22:59:12.052Z,146612.03
2022-08-28T23:01:42.225Z,146530.41
2022-08-28T23:04:10.868Z,146584.03
2022-08-28T23:06:40.173Z,146485.34
2022-08-28T23:09:08.207Z,146548.69
2022-08-28T23:11:36.475Z,146524.34
2022-08-28T23:14:05.422Z,146530.41
2022-08-28T23:16:32.879Z,146498.75
2022-08-28T23:19:13.273Z,146499.94
2022-08-28T23:21:44.106Z,146497.53
2022-08-28T23:24:16.053Z,146482.94
2022-08-28T23:26:44.772Z,146469.53
2022-08-28T23:29:12.417Z,146457.34
2022-08-28T23:31:39.756Z,146440.28
2022-08-28T23:34:07.031Z,146397.63
2022-08-28T23:36:35.830Z,146447.59
2022-08-28T23:39:04.882Z,146385.44
2022-08-28T23:41:33.180Z,146420.81
2022-08-28T23:44:02.409Z,146446.41
2022-08-28T23:46:31.331Z,146422.00
2022-08-28T23:48:58.480Z,146329.44
2022-08-28T23:51:25.568Z,146390.31
2022-08-28T23:53:53.445Z,146339.16
2022-08-28T23:56:20.509Z,146317.25
2022-08-28T23:58:47.537Z,146341.63
